Map

Track Data

SID SEASON NUMBER BASIN SUBBASIN NAME ISO_TIME NATURE LAT LON WMO_WIND WMO_PRES WMO_AGENCY TRACK_TYPE DIST2LAND LANDFALL IFLAG USA_AGENCY USA_ATCF_ID USA_LAT USA_LON USA_RECORD USA_STATUS USA_WIND USA_PRES USA_SSHS USA_R34_NE USA_R34_SE USA_R34_SW USA_R34_NW USA_R50_NE USA_R50_SE USA_R50_SW USA_R50_NW USA_R64_NE USA_R64_SE USA_R64_SW USA_R64_NW USA_POCI USA_ROCI USA_RMW USA_EYE TOKYO_LAT TOKYO_LON TOKYO_GRADE TOKYO_WIND TOKYO_PRES TOKYO_R50_DIR TOKYO_R50_LONG TOKYO_R50_SHORT TOKYO_R30_DIR TOKYO_R30_LONG TOKYO_R30_SHORT TOKYO_LAND CMA_LAT CMA_LON CMA_CAT CMA_WIND CMA_PRES HKO_LAT HKO_LON HKO_CAT HKO_WIND HKO_PRES NEWDELHI_LAT NEWDELHI_LON NEWDELHI_GRADE NEWDELHI_WIND NEWDELHI_PRES NEWDELHI_CI NEWDELHI_DP NEWDELHI_POCI REUNION_LAT REUNION_LON REUNION_TYPE REUNION_WIND REUNION_PRES REUNION_TNUM REUNION_CI REUNION_RMW REUNION_R34_NE REUNION_R34_SE REUNION_R34_SW REUNION_R34_NW REUNION_R50_NE REUNION_R50_SE REUNION_R50_SW REUNION_R50_NW REUNION_R64_NE REUNION_R64_SE REUNION_R64_SW REUNION_R64_NW BOM_LAT BOM_LON BOM_TYPE BOM_WIND BOM_PRES BOM_TNUM BOM_CI BOM_RMW BOM_R34_NE BOM_R34_SE BOM_R34_SW BOM_R34_NW BOM_R50_NE BOM_R50_SE BOM_R50_SW BOM_R50_NW BOM_R64_NE BOM_R64_SE BOM_R64_SW BOM_R64_NW BOM_ROCI BOM_POCI BOM_EYE BOM_POS_METHOD BOM_PRES_METHOD NADI_LAT NADI_LON NADI_CAT NADI_WIND NADI_PRES WELLINGTON_LAT WELLINGTON_LON WELLINGTON_WIND WELLINGTON_PRES DS824_LAT DS824_LON DS824_STAGE DS824_WIND DS824_PRES TD9636_LAT TD9636_LON TD9636_STAGE TD9636_WIND TD9636_PRES TD9635_LAT TD9635_LON TD9635_WIND TD9635_PRES TD9635_ROCI NEUMANN_LAT NEUMANN_LON NEUMANN_CLASS NEUMANN_WIND NEUMANN_PRES MLC_LAT MLC_LON MLC_CLASS MLC_WIND MLC_PRES USA_GUST BOM_GUST BOM_GUST_PER REUNION_GUST REUNION_GUST_PER USA_SEAHGT USA_SEARAD_NE USA_SEARAD_SE USA_SEARAD_SW USA_SEARAD_NW STORM_SPEED STORM_DIR
1926316N12127 1926 59 WP MM NOT_NAMED 1926-11-12 10:00:00 NR 11.7000 127.200 main 171 162 __________O___ -1 11.7000 127.200 2 4 305
1926316N12127 1926 59 WP MM NOT_NAMED 1926-11-12 12:00:00 NR 11.7816 127.080 main 167 152 __________P___ -1 11.7816 127.080 2 5 301
1926316N12127 1926 59 WP MM NOT_NAMED 1926-11-12 15:00:00 NR 11.9046 126.858 main 152 111 __________P___ -1 11.9046 126.858 2 6 295
1926316N12127 1926 59 WP MM NOT_NAMED 1926-11-12 18:00:00 NR 12.0295 126.526 main 111 54 __________P___ -1 12.0295 126.526 2 9 287
1926316N12127 1926 59 WP MM NOT_NAMED 1926-11-12 21:00:00 NR 12.1569 126.019 main 54 32 __________P___ -1 12.1569 126.019 2 11 283
1926316N12127 1926 59 WP MM NOT_NAMED 1926-11-12 22:00:00 NR 12.2000 125.800 main 32 0 __________O___ -1 12.2000 125.800 2 15 280
1926316N12127 1926 59 WP MM NOT_NAMED 1926-11-13 00:00:00 NR 12.2868 125.279 main 0 0 __________P___ -1 12.2868 125.279 2 17 279
1926316N12127 1926 59 WP MM NOT_NAMED 1926-11-13 03:00:00 NR 12.4164 124.326 main 10 0 __________P___ -1 12.4164 124.326 2 20 277
1926316N12127 1926 59 WP MM NOT_NAMED 1926-11-13 06:00:00 NR 12.5423 123.236 main 10 10 __________P___ -1 12.5423 123.236 2 22 276
1926316N12127 1926 59 WP MM NOT_NAMED 1926-11-13 09:00:00 NR 12.6618 122.085 main 55 24 __________P___ -1 12.6618 122.085 2 23 276
1926316N12127 1926 59 WP MM NOT_NAMED 1926-11-13 10:00:00 NR 12.7000 121.700 main 15 0 __________O___ -1 12.7000 121.700 4 23 274
1926316N12127 1926 59 WP MM NOT_NAMED 1926-11-13 12:00:00 NR 12.7469 120.931 main 0 0 __________P___ -1 12.7469 120.931 4 23 273
1926316N12127 1926 59 WP MM NOT_NAMED 1926-11-13 15:00:00 NR 12.8102 119.757 main 86 93 __________P___ -1 12.8102 119.757 4 23 274
1926316N12127 1926 59 WP MM NOT_NAMED 1926-11-13 18:00:00 NR 12.8948 118.624 main 192 192 __________P___ -1 12.8948 118.624 4 21 276
1926316N12127 1926 59 WP MM NOT_NAMED 1926-11-13 21:00:00 NR 13.0349 117.603 main 280 280 __________P___ -1 13.0349 117.603 4 20 279
1926316N12127 1926 59 WP MM NOT_NAMED 1926-11-13 22:00:00 NR 13.1000 117.300 main 312 312 __________O___ -1 13.1000 117.300 4 17 286
1926316N12127 1926 59 WP MM NOT_NAMED 1926-11-14 00:00:00 NR 13.2691 116.776 main 367 376 __________P___ -1 13.2691 116.776 4 15 293
1926316N12127 1926 59 WP MM NOT_NAMED 1926-11-14 03:00:00 NR 13.5874 116.115 main 448 448 __________P___ -1 13.5874 116.115 4 14 300
1926316N12127 1926 59 WP MM NOT_NAMED 1926-11-14 06:00:00 NR 13.9609 115.560 main 488 498 __________P___ -1 13.9609 115.560 4 13 307
1926316N12127 1926 59 WP MM NOT_NAMED 1926-11-14 09:00:00 NR 14.3637 115.062 main 525 531 __________P___ -1 14.3637 115.062 4 13 310
1926316N12127 1926 59 WP MM NOT_NAMED 1926-11-14 10:00:00 NR 14.5000 114.900 main 541 541 __________O___ -1 14.5000 114.900 2 13 311
1926316N12127 1926 59 WP MM NOT_NAMED 1926-11-14 12:00:00 NR 14.7711 114.574 main 563 534 __________P___ -1 14.7711 114.574 2 13 310
1926316N12127 1926 59 WP MM NOT_NAMED 1926-11-14 15:00:00 NR 15.1737 114.078 main 536 485 __________P___ -1 15.1737 114.078 2 13 310
1926316N12127 1926 59 WP MM NOT_NAMED 1926-11-14 18:00:00 NR 15.5724 113.576 main 485 416 __________P___ -1 15.5724 113.576 2 13 309
1926316N12127 1926 59 WP MM NOT_NAMED 1926-11-14 21:00:00 NR 15.9684 113.069 main 416 393 __________P___ -1 15.9684 113.069 2 13 309
1926316N12127 1926 59 WP MM NOT_NAMED 1926-11-14 22:00:00 NR 16.1000 112.900 main 393 __________O___ -1 16.1000 112.900 2 13 309

Digital Typhoon Data and Search

About IBTrACS Database

This database is a web-friendly format of International Best Track Archive for Climate Stewardship (IBTrACS), a global best track data archive curated by NOAA dating back to 1842.

Updated: 2021-10-25